createdAt,value
2022-10-16T00:04:38.070Z,996.3
2022-10-16T00:09:38.079Z,996.2
2022-10-16T00:14:38.084Z,996.1
2022-10-16T00:19:38.101Z,996.2
2022-10-16T00:24:38.080Z,996.1
2022-10-16T00:29:38.112Z,996.2
2022-10-16T00:34:38.087Z,996.2
2022-10-16T00:39:38.090Z,996.3
2022-10-16T00:44:38.091Z,996.2
2022-10-16T00:49:38.098Z,996.2
2022-10-16T00:54:38.081Z,996.1
2022-10-16T00:59:38.116Z,996.2
2022-10-16T01:04:38.092Z,996.2
2022-10-16T01:09:38.104Z,996.4
2022-10-16T01:14:38.095Z,996.3
2022-10-16T01:19:38.106Z,996.3
2022-10-16T01:24:38.185Z,996.4
2022-10-16T01:29:38.103Z,996.4
2022-10-16T01:34:38.105Z,996.4
2022-10-16T01:39:38.118Z,996.4
2022-10-16T01:44:38.143Z,996.6
2022-10-16T01:49:38.112Z,996.6
2022-10-16T01:54:38.108Z,996.6
2022-10-16T01:59:38.113Z,996.6
2022-10-16T02:04:38.140Z,996.5
2022-10-16T02:09:38.119Z,996.4
2022-10-16T02:14:38.108Z,996.4
2022-10-16T02:24:38.124Z,996.4
2022-10-16T02:29:38.109Z,996.6
2022-10-16T02:34:38.124Z,996.6
2022-10-16T02:39:38.124Z,996.7
2022-10-16T02:44:38.133Z,996.8
2022-10-16T02:49:38.124Z,996.9
2022-10-16T02:54:38.183Z,997.0
2022-10-16T02:59:38.126Z,997.1
2022-10-16T03:04:38.128Z,997.2
2022-10-16T03:09:38.148Z,997.3
2022-10-16T03:14:38.151Z,997.4
2022-10-16T03:19:38.135Z,997.5
2022-10-16T03:24:38.142Z,997.7
2022-10-16T03:29:38.126Z,997.7
2022-10-16T03:34:38.130Z,997.9
2022-10-16T03:39:38.135Z,997.9
2022-10-16T03:44:38.146Z,998.0
2022-10-16T03:49:38.136Z,998.1
2022-10-16T03:54:38.147Z,998.2
2022-10-16T03:59:38.130Z,998.3
2022-10-16T04:04:38.132Z,998.5
2022-10-16T04:09:38.140Z,998.7
2022-10-16T04:14:38.146Z,998.8
2022-10-16T04:19:38.144Z,998.8
2022-10-16T04:24:38.167Z,999.1
2022-10-16T04:29:38.145Z,999.2
2022-10-16T04:34:38.144Z,999.4
2022-10-16T04:39:38.136Z,999.6
2022-10-16T04:44:38.137Z,999.7
2022-10-16T04:49:38.137Z,999.8
2022-10-16T04:54:38.162Z,999.9
2022-10-16T04:59:38.150Z,1000.1
2022-10-16T05:04:38.140Z,1000.1
2022-10-16T05:09:38.131Z,1000.2
2022-10-16T05:14:38.151Z,1000.2
2022-10-16T05:19:38.139Z,1000.3
2022-10-16T05:24:38.138Z,1000.5
2022-10-16T05:29:38.151Z,1000.6
2022-10-16T05:34:38.151Z,1000.7
2022-10-16T05:39:38.197Z,1000.7
2022-10-16T05:44:38.180Z,1000.9
2022-10-16T05:49:40.518Z,1001.1
2022-10-16T05:54:38.165Z,1001.2
2022-10-16T05:59:38.140Z,1001.4
2022-10-16T06:04:38.161Z,1001.4
2022-10-16T06:09:38.157Z,1001.5
2022-10-16T06:14:38.235Z,1001.5
2022-10-16T06:19:38.150Z,1001.5
2022-10-16T06:24:38.189Z,1001.6
2022-10-16T06:29:38.154Z,1001.6
2022-10-16T06:34:40.643Z,1001.9
2022-10-16T06:39:38.161Z,1001.9
2022-10-16T06:44:38.161Z,1002.1
2022-10-16T06:49:38.162Z,1002.3
2022-10-16T06:54:42.338Z,1002.4
2022-10-16T06:59:38.164Z,1002.6
2022-10-16T07:04:38.177Z,1002.7
2022-10-16T07:09:38.162Z,1002.7
2022-10-16T07:14:38.173Z,1002.9
2022-10-16T07:19:38.177Z,1002.9
2022-10-16T07:24:38.177Z,1003.0
2022-10-16T07:29:38.151Z,1003.2
2022-10-16T07:34:38.175Z,1003.2
2022-10-16T07:39:38.175Z,1003.4
2022-10-16T07:44:38.159Z,1003.5
2022-10-16T07:49:38.178Z,1003.6
2022-10-16T07:54:38.163Z,1003.8
2022-10-16T07:59:38.181Z,1003.9
2022-10-16T08:04:38.179Z,1004.1
2022-10-16T08:09:38.190Z,1004.1
2022-10-16T08:14:38.172Z,1004.3
2022-10-16T08:19:38.184Z,1004.4
2022-10-16T08:24:38.174Z,1004.6
2022-10-16T08:29:38.182Z,1004.7
2022-10-16T08:34:38.182Z,1004.7
2022-10-16T08:39:38.169Z,1004.7
2022-10-16T08:44:38.181Z,1004.8
2022-10-16T08:49:38.267Z,1004.8
2022-10-16T08:54:38.177Z,1005.0
2022-10-16T08:59:38.212Z,1005.0
2022-10-16T09:04:38.218Z,1005.1
2022-10-16T09:09:38.190Z,1005.2
2022-10-16T09:14:38.182Z,1005.2
2022-10-16T09:19:38.181Z,1005.1
2022-10-16T09:24:38.182Z,1005.2
2022-10-16T09:29:38.173Z,1005.3
2022-10-16T09:34:38.186Z,1005.4
2022-10-16T09:39:38.240Z,1005.4
2022-10-16T09:44:38.239Z,1005.3
2022-10-16T09:49:38.182Z,1005.5
2022-10-16T09:54:38.181Z,1005.5
2022-10-16T09:59:38.197Z,1005.5
2022-10-16T10:04:38.187Z,1005.6
2022-10-16T10:09:38.190Z,1005.6
2022-10-16T10:14:38.156Z,1005.8
2022-10-16T10:19:38.198Z,1005.8
2022-10-16T10:24:38.201Z,1005.8
2022-10-16T10:29:38.192Z,1005.8
2022-10-16T10:34:38.183Z,1005.8
2022-10-16T10:39:38.195Z,1005.8
2022-10-16T10:44:38.192Z,1005.8
2022-10-16T10:49:38.204Z,1005.9
2022-10-16T10:54:38.189Z,1006.0
2022-10-16T10:59:38.156Z,1005.9
2022-10-16T11:04:38.164Z,1005.9
2022-10-16T11:09:38.210Z,1006.0
2022-10-16T11:14:38.215Z,1006.1
2022-10-16T11:19:38.196Z,1006.5
2022-10-16T11:24:38.204Z,1006.6
2022-10-16T11:29:38.219Z,1006.7
2022-10-16T11:34:38.197Z,1006.8
2022-10-16T11:39:38.213Z,1007.0
2022-10-16T11:44:38.204Z,1007.1
2022-10-16T11:49:38.207Z,1007.1
2022-10-16T11:54:38.200Z,1007.1
2022-10-16T11:59:38.181Z,1007.0
2022-10-16T12:04:38.217Z,1007.0
2022-10-16T12:09:38.206Z,1007.1
2022-10-16T12:14:57.409Z,1007.0
2022-10-16T12:19:38.217Z,1007.1
2022-10-16T12:24:38.207Z,1006.9
2022-10-16T12:29:38.266Z,1006.9
2022-10-16T12:34:38.203Z,1006.9
2022-10-16T12:39:38.212Z,1006.8
2022-10-16T12:44:38.216Z,1006.8
2022-10-16T12:49:38.217Z,1006.9
2022-10-16T12:54:38.219Z,1006.9
2022-10-16T12:59:38.216Z,1007.1
2022-10-16T13:04:38.224Z,1007.1
2022-10-16T13:09:38.213Z,1007.3
2022-10-16T13:14:38.258Z,1007.4
2022-10-16T13:19:38.230Z,1007.5
2022-10-16T13:24:38.221Z,1007.7
2022-10-16T13:29:38.245Z,1007.8
2022-10-16T13:34:38.234Z,1007.7
2022-10-16T13:39:38.212Z,1007.8
2022-10-16T13:44:38.236Z,1007.9
2022-10-16T13:49:38.229Z,1007.9
2022-10-16T13:54:38.242Z,1007.9
2022-10-16T13:59:38.244Z,1007.9
2022-10-16T14:04:38.250Z,1007.8
2022-10-16T14:09:38.283Z,1007.8
2022-10-16T14:14:38.254Z,1008.0
2022-10-16T14:19:38.229Z,1008.0
2022-10-16T14:24:38.248Z,1008.0
2022-10-16T14:29:38.253Z,1007.9
2022-10-16T14:34:38.242Z,1008.0
2022-10-16T14:39:38.223Z,1008.1
2022-10-16T14:44:38.260Z,1008.2
2022-10-16T14:49:38.227Z,1008.1
2022-10-16T14:54:38.271Z,1008.1
2022-10-16T14:59:38.262Z,1008.2
2022-10-16T15:04:38.251Z,1008.3
2022-10-16T15:09:38.247Z,1008.3
2022-10-16T15:14:38.251Z,1008.4
2022-10-16T15:19:38.245Z,1008.4
2022-10-16T15:24:38.252Z,1008.4
2022-10-16T15:29:38.255Z,1008.4
2022-10-16T15:34:38.269Z,1008.5
2022-10-16T15:39:41.290Z,1008.6
2022-10-16T15:44:38.281Z,1008.5
2022-10-16T15:49:38.263Z,1008.4
2022-10-16T15:54:38.277Z,1008.4
2022-10-16T15:59:38.260Z,1008.3
2022-10-16T16:04:43.918Z,1008.3
2022-10-16T16:09:38.257Z,1008.1
2022-10-16T16:14:38.277Z,1008.1
2022-10-16T16:19:38.317Z,1008.2
2022-10-16T16:24:38.261Z,1008.3
2022-10-16T16:29:38.268Z,1008.3
2022-10-16T16:34:38.268Z,1008.3
2022-10-16T16:39:38.272Z,1008.3
2022-10-16T16:44:38.282Z,1008.4
2022-10-16T16:49:38.271Z,1008.4
2022-10-16T16:54:38.285Z,1008.4
2022-10-16T16:59:38.270Z,1008.4
2022-10-16T17:04:38.271Z,1008.3
2022-10-16T17:09:38.272Z,1008.3
2022-10-16T17:14:38.285Z,1008.4
2022-10-16T17:19:38.302Z,1008.3
2022-10-16T17:24:38.274Z,1008.4
2022-10-16T17:29:38.275Z,1008.5
2022-10-16T17:34:38.286Z,1008.4
2022-10-16T17:39:38.285Z,1008.4
2022-10-16T17:44:38.319Z,1008.3
2022-10-16T17:49:38.258Z,1008.3
2022-10-16T17:54:38.287Z,1008.3
2022-10-16T17:59:38.272Z,1008.3
2022-10-16T18:04:38.319Z,1008.1
2022-10-16T18:09:42.609Z,1008.1
2022-10-16T18:14:38.310Z,1008.0
2022-10-16T18:19:38.306Z,1008.0
2022-10-16T18:24:38.293Z,1008.1
2022-10-16T18:29:38.281Z,1008.0
2022-10-16T18:34:38.284Z,1008.0
2022-10-16T18:39:38.303Z,1007.9
2022-10-16T18:44:38.307Z,1007.9
2022-10-16T18:49:38.298Z,1008.0
2022-10-16T18:54:38.326Z,1007.9
2022-10-16T18:59:38.302Z,1007.9
2022-10-16T19:04:38.300Z,1008.1
2022-10-16T19:09:38.295Z,1008.2
2022-10-16T19:14:38.309Z,1008.0
2022-10-16T19:19:38.321Z,1008.0
2022-10-16T19:24:38.311Z,1007.8
2022-10-16T19:29:38.310Z,1007.7
2022-10-16T19:34:38.325Z,1007.7
2022-10-16T19:39:38.320Z,1007.7
2022-10-16T19:44:38.323Z,1007.5
2022-10-16T19:49:38.327Z,1007.4
2022-10-16T19:54:38.303Z,1007.3
2022-10-16T19:59:40.757Z,1007.3
2022-10-16T20:04:38.340Z,1007.2
2022-10-16T20:09:38.307Z,1007.2
2022-10-16T20:14:38.296Z,1007.3
2022-10-16T20:19:38.341Z,1007.4
2022-10-16T20:24:38.330Z,1007.4
2022-10-16T20:29:38.298Z,1007.1
2022-10-16T20:39:38.316Z,1007.1
2022-10-16T20:44:38.340Z,1007.0
2022-10-16T20:49:40.546Z,1006.9
2022-10-16T20:54:38.337Z,1007.0
2022-10-16T20:59:38.340Z,1006.9
2022-10-16T21:04:38.331Z,1006.8
2022-10-16T21:09:38.310Z,1006.7
2022-10-16T21:14:42.229Z,1006.6
2022-10-16T21:19:38.337Z,1006.5
2022-10-16T21:24:38.353Z,1006.5
2022-10-16T21:29:38.362Z,1006.4
2022-10-16T21:34:38.395Z,1006.3
2022-10-16T21:39:38.468Z,1006.3
2022-10-16T21:44:38.337Z,1006.2
2022-10-16T21:49:38.346Z,1006.1
2022-10-16T21:54:38.337Z,1005.9
2022-10-16T21:59:38.345Z,1005.8
2022-10-16T22:04:38.358Z,1005.4
2022-10-16T22:09:38.336Z,1005.4
2022-10-16T22:14:38.343Z,1005.1
2022-10-16T22:19:38.372Z,1005.1
2022-10-16T22:24:38.354Z,1005.1
2022-10-16T22:29:38.384Z,1005.1
2022-10-16T22:34:38.354Z,1005.1
2022-10-16T22:39:38.368Z,1004.9
2022-10-16T22:44:38.344Z,1004.8
2022-10-16T22:49:38.349Z,1004.7
2022-10-16T22:54:38.349Z,1004.7
2022-10-16T22:59:38.359Z,1004.6
2022-10-16T23:04:38.346Z,1004.7
2022-10-16T23:09:38.353Z,1004.5
2022-10-16T23:14:38.349Z,1004.5
2022-10-16T23:19:38.418Z,1004.4
2022-10-16T23:24:38.338Z,1004.1
2022-10-16T23:29:38.357Z,1004.1
2022-10-16T23:34:38.343Z,1004.0
2022-10-16T23:39:38.353Z,1004.0
2022-10-16T23:44:38.363Z,1004.1
2022-10-16T23:49:38.360Z,1004.1
2022-10-16T23:54:38.336Z,1003.9
2022-10-16T23:59:38.364Z,1004.0
